sensor_id;sensor_type;location;lat;lon;timestamp;pressure;altitude;pressure_sealevel;temperature;humidity
40788;BME280;26497;52.494;7.546;2022-07-06T00:00:00;101768.88;;;14.97;66.85
40788;BME280;26497;52.494;7.546;2022-07-06T00:02:27;101767.09;;;15.09;66.31
40788;BME280;26497;52.494;7.546;2022-07-06T00:04:54;101769.75;;;15.09;65.65
40788;BME280;26497;52.494;7.546;2022-07-06T00:07:24;101780.38;;;14.90;66.13
40788;BME280;26497;52.494;7.546;2022-07-06T00:09:51;101775.94;;;14.75;66.77
40788;BME280;26497;52.494;7.546;2022-07-06T00:12:18;101781.22;;;14.64;67.15
40788;BME280;26497;52.494;7.546;2022-07-06T00:14:45;101774.13;;;14.65;67.41
40788;BME280;26497;52.494;7.546;2022-07-06T00:17:12;101777.69;;;14.65;67.76
40788;BME280;26497;52.494;7.546;2022-07-06T00:19:39;101782.09;;;14.62;68.17
40788;BME280;26497;52.494;7.546;2022-07-06T00:22:06;101779.47;;;14.63;68.38
40788;BME280;26497;52.494;7.546;2022-07-06T00:24:34;101783.88;;;14.63;68.63
40788;BME280;26497;52.494;7.546;2022-07-06T00:27:02;101774.16;;;14.63;68.76
40788;BME280;26497;52.494;7.546;2022-07-06T00:29:29;101778.59;;;14.67;68.73
40788;BME280;26497;52.494;7.546;2022-07-06T00:31:56;101774.13;;;14.62;69.19
40788;BME280;26497;52.494;7.546;2022-07-06T00:34:23;101770.63;;;14.67;69.29
40788;BME280;26497;52.494;7.546;2022-07-06T00:36:49;101770.63;;;14.67;69.12
40788;BME280;26497;52.494;7.546;2022-07-06T00:39:16;101773.25;;;14.69;69.40
40788;BME280;26497;52.494;7.546;2022-07-06T00:41:46;101776.81;;;14.71;69.80
40788;BME280;26497;52.494;7.546;2022-07-06T00:44:13;101777.72;;;14.74;69.24
40788;BME280;26497;52.494;7.546;2022-07-06T00:46:40;101780.38;;;14.79;69.15
40788;BME280;26497;52.494;7.546;2022-07-06T00:49:07;101777.72;;;14.78;69.17
40788;BME280;26497;52.494;7.546;2022-07-06T00:51:54;101782.16;;;14.72;69.00
40788;BME280;26497;52.494;7.546;2022-07-06T00:54:21;101782.16;;;14.69;68.95
40788;BME280;26497;52.494;7.546;2022-07-06T00:56:49;101779.47;;;14.66;68.92
40788;BME280;26497;52.494;7.546;2022-07-06T00:59:18;101783.88;;;14.61;68.62
40788;BME280;26497;52.494;7.546;2022-07-06T01:01:45;101784.75;;;14.57;68.55
40788;BME280;26497;52.494;7.546;2022-07-06T01:04:12;101785.66;;;14.48;68.63
40788;BME280;26497;52.494;7.546;2022-07-06T01:06:39;101788.28;;;14.43;68.64
40788;BME280;26497;52.494;7.546;2022-07-06T01:09:06;101790.06;;;14.48;68.05
40788;BME280;26497;52.494;7.546;2022-07-06T01:11:33;101786.53;;;14.45;67.94
40788;BME280;26497;52.494;7.546;2022-07-06T01:14:01;101779.44;;;14.37;67.78
40788;BME280;26497;52.494;7.546;2022-07-06T01:16:28;101778.53;;;14.30;68.43
40788;BME280;26497;52.494;7.546;2022-07-06T01:18:55;101786.47;;;14.21;69.02
40788;BME280;26497;52.494;7.546;2022-07-06T01:21:24;101788.25;;;14.17;69.29
40788;BME280;26497;52.494;7.546;2022-07-06T01:23:51;101779.41;;;14.23;69.26
40788;BME280;26497;52.494;7.546;2022-07-06T01:26:20;101775.00;;;14.29;69.44
40788;BME280;26497;52.494;7.546;2022-07-06T01:28:50;101778.56;;;14.41;69.67
40788;BME280;26497;52.494;7.546;2022-07-06T01:31:19;101778.56;;;14.44;69.86
40788;BME280;26497;52.494;7.546;2022-07-06T01:33:48;101772.41;;;14.54;69.52
40788;BME280;26497;52.494;7.546;2022-07-06T01:36:15;101777.69;;;14.59;69.16
40788;BME280;26497;52.494;7.546;2022-07-06T01:38:49;101780.34;;;14.57;69.44
40788;BME280;26497;52.494;7.546;2022-07-06T01:41:17;101779.47;;;14.54;69.66
40788;BME280;26497;52.494;7.546;2022-07-06T01:43:49;101773.25;;;14.59;69.64
40788;BME280;26497;52.494;7.546;2022-07-06T01:46:17;101774.16;;;14.63;69.79
40788;BME280;26497;52.494;7.546;2022-07-06T01:48:45;101770.63;;;14.72;70.02
40788;BME280;26497;52.494;7.546;2022-07-06T01:51:12;101775.06;;;14.76;70.61
40788;BME280;26497;52.494;7.546;2022-07-06T01:53:39;101765.34;;;14.77;71.28
40788;BME280;26497;52.494;7.546;2022-07-06T01:56:09;101776.81;;;14.89;71.75
40788;BME280;26497;52.494;7.546;2022-07-06T01:58:37;101768.88;;;15.00;71.93
40788;BME280;26497;52.494;7.546;2022-07-06T02:01:07;101773.25;;;15.15;71.75
40788;BME280;26497;52.494;7.546;2022-07-06T02:03:35;101767.03;;;15.26;71.94
40788;BME280;26497;52.494;7.546;2022-07-06T02:06:03;101762.56;;;15.42;71.46
40788;BME280;26497;52.494;7.546;2022-07-06T02:08:31;101755.47;;;15.45;71.74
40788;BME280;26497;52.494;7.546;2022-07-06T02:10:58;101751.88;;;15.59;71.29
40788;BME280;26497;52.494;7.546;2022-07-06T02:13:26;101758.06;;;15.67;71.23
40788;BME280;26497;52.494;7.546;2022-07-06T02:15:53;101755.34;;;15.75;70.83
40788;BME280;26497;52.494;7.546;2022-07-06T02:18:20;101764.19;;;15.83;70.47
40788;BME280;26497;52.494;7.546;2022-07-06T02:20:47;101760.66;;;15.81;70.72
40788;BME280;26497;52.494;7.546;2022-07-06T02:23:14;101765.03;;;15.95;70.45
40788;BME280;26497;52.494;7.546;2022-07-06T02:25:41;101757.06;;;15.95;70.29
40788;BME280;26497;52.494;7.546;2022-07-06T02:28:08;101756.13;;;16.02;70.29
40788;BME280;26497;52.494;7.546;2022-07-06T02:30:37;101759.63;;;16.13;70.28
40788;BME280;26497;52.494;7.546;2022-07-06T02:33:04;101763.09;;;16.25;69.88
40788;BME280;26497;52.494;7.546;2022-07-06T02:35:31;101755.13;;;16.23;69.87
40788;BME280;26497;52.494;7.546;2022-07-06T02:37:58;101759.50;;;16.32;69.56
40788;BME280;26497;52.494;7.546;2022-07-06T02:40:25;101766.56;;;16.34;69.31
40788;BME280;26497;52.494;7.546;2022-07-06T02:42:52;101747.94;;;16.34;69.20
40788;BME280;26497;52.494;7.546;2022-07-06T02:45:19;101761.25;;;16.36;69.12
40788;BME280;26497;52.494;7.546;2022-07-06T02:47:47;101754.13;;;16.41;68.83
40788;BME280;26497;52.494;7.546;2022-07-06T02:50:14;101757.69;;;16.40;68.85
40788;BME280;26497;52.494;7.546;2022-07-06T02:52:41;101768.25;;;16.48;68.37
40788;BME280;26497;52.494;7.546;2022-07-06T02:55:08;101770.09;;;16.40;68.45
40788;BME280;26497;52.494;7.546;2022-07-06T02:57:35;101767.41;;;16.44;68.12
40788;BME280;26497;52.494;7.546;2022-07-06T03:00:04;101768.22;;;16.54;68.07
40788;BME280;26497;52.494;7.546;2022-07-06T03:02:32;101770.78;;;16.63;67.68
40788;BME280;26497;52.494;7.546;2022-07-06T03:05:00;101770.75;;;16.68;67.25
40788;BME280;26497;52.494;7.546;2022-07-06T03:07:27;101776.97;;;16.69;66.90
40788;BME280;26497;52.494;7.546;2022-07-06T03:09:54;101777.84;;;16.69;67.03
40788;BME280;26497;52.494;7.546;2022-07-06T03:12:21;101775.19;;;16.68;66.80
40788;BME280;26497;52.494;7.546;2022-07-06T03:14:48;101780.47;;;16.72;66.61
40788;BME280;26497;52.494;7.546;2022-07-06T03:17:15;101770.66;;;16.79;66.28
40788;BME280;26497;52.494;7.546;2022-07-06T03:19:42;101770.66;;;16.79;65.80
40788;BME280;26497;52.494;7.546;2022-07-06T03:22:10;101779.53;;;16.79;66.09
40788;BME280;26497;52.494;7.546;2022-07-06T03:24:37;101785.75;;;16.80;65.75
40788;BME280;26497;52.494;7.546;2022-07-06T03:27:04;101775.06;;;16.83;65.72
40788;BME280;26497;52.494;7.546;2022-07-06T03:29:31;101776.84;;;16.83;65.48
40788;BME280;26497;52.494;7.546;2022-07-06T03:31:58;101783.09;;;16.78;65.46
40788;BME280;26497;52.494;7.546;2022-07-06T03:34:25;101782.13;;;16.89;65.45
40788;BME280;26497;52.494;7.546;2022-07-06T03:36:52;101779.41;;;16.98;65.30
40788;BME280;26497;52.494;7.546;2022-07-06T03:39:20;101776.72;;;17.01;65.06
40788;BME280;26497;52.494;7.546;2022-07-06T03:41:47;101781.16;;;16.96;65.34
40788;BME280;26497;52.494;7.546;2022-07-06T03:44:14;101773.16;;;16.96;65.10
40788;BME280;26497;52.494;7.546;2022-07-06T03:46:41;101766.97;;;16.99;64.93
40788;BME280;26497;52.494;7.546;2022-07-06T03:49:08;101767.78;;;17.05;64.91
40788;BME280;26497;52.494;7.546;2022-07-06T03:51:35;101770.44;;;17.10;64.63
40788;BME280;26497;52.494;7.546;2022-07-06T03:54:03;101766.88;;;17.11;64.42
40788;BME280;26497;52.494;7.546;2022-07-06T03:56:31;101769.63;;;17.00;64.38
40788;BME280;26497;52.494;7.546;2022-07-06T03:59:00;101774.91;;;17.05;64.48
40788;BME280;26497;52.494;7.546;2022-07-06T04:01:28;101781.06;;;17.13;64.06
40788;BME280;26497;52.494;7.546;2022-07-06T04:03:56;101784.47;;;17.24;64.33
40788;BME280;26497;52.494;7.546;2022-07-06T04:06:24;101782.53;;;17.39;64.34
40788;BME280;26497;52.494;7.546;2022-07-06T04:08:51;101774.44;;;17.50;63.61
40788;BME280;26497;52.494;7.546;2022-07-06T04:11:18;101778.91;;;17.46;63.92
40788;BME280;26497;52.494;7.546;2022-07-06T04:13:46;101771.63;;;17.62;63.74
40788;BME280;26497;52.494;7.546;2022-07-06T04:16:13;101781.28;;;17.71;63.19
40788;BME280;26497;52.494;7.546;2022-07-06T04:18:40;101785.69;;;17.75;63.46
40788;BME280;26497;52.494;7.546;2022-07-06T04:21:07;101780.97;;;17.94;63.14
40788;BME280;26497;52.494;7.546;2022-07-06T04:23:34;101785.38;;;17.98;62.83
40788;BME280;26497;52.494;7.546;2022-07-06T04:26:01;101784.53;;;17.93;62.64
40788;BME280;26497;52.494;7.546;2022-07-06T04:28:28;101780.19;;;17.88;62.53
40788;BME280;26497;52.494;7.546;2022-07-06T04:30:56;101784.66;;;17.87;62.37
40788;BME280;26497;52.494;7.546;2022-07-06T04:33:24;101790.03;;;17.82;62.35
40788;BME280;26497;52.494;7.546;2022-07-06T04:35:51;101790.78;;;17.92;62.40
40788;BME280;26497;52.494;7.546;2022-07-06T04:38:18;101791.50;;;18.07;62.30
40788;BME280;26497;52.494;7.546;2022-07-06T04:40:45;101782.34;;;18.28;61.86
40788;BME280;26497;52.494;7.546;2022-07-06T04:43:13;101780.44;;;18.36;61.45
40788;BME280;26497;52.494;7.546;2022-07-06T04:45:40;101769.41;;;18.56;61.05
40788;BME280;26497;52.494;7.546;2022-07-06T04:48:08;101778.06;;;18.72;59.99
40788;BME280;26497;52.494;7.546;2022-07-06T04:50:35;101776.19;;;18.79;59.79
40788;BME280;26497;52.494;7.546;2022-07-06T04:53:02;101782.09;;;19.00;60.00
40788;BME280;26497;52.494;7.546;2022-07-06T04:55:29;101784.75;;;19.00;59.08
40788;BME280;26497;52.494;7.546;2022-07-06T04:57:56;101790.91;;;19.05;59.04
40788;BME280;26497;52.494;7.546;2022-07-06T05:00:24;101786.38;;;19.10;59.41
40788;BME280;26497;52.494;7.546;2022-07-06T05:02:51;101787.13;;;19.17;58.87
40788;BME280;26497;52.494;7.546;2022-07-06T05:05:19;101789.69;;;19.22;59.15
40788;BME280;26497;52.494;7.546;2022-07-06T05:07:46;101788.88;;;19.20;58.97
40788;BME280;26497;52.494;7.546;2022-07-06T05:10:13;101787.91;;;19.22;58.62
40788;BME280;26497;52.494;7.546;2022-07-06T05:12:40;101786.94;;;19.26;58.98
40788;BME280;26497;52.494;7.546;2022-07-06T05:15:09;101790.25;;;19.39;58.48
40788;BME280;26497;52.494;7.546;2022-07-06T05:17:36;101784.72;;;19.50;58.12
40788;BME280;26497;52.494;7.546;2022-07-06T05:20:04;101792.63;;;19.55;57.56
40788;BME280;26497;52.494;7.546;2022-07-06T05:22:33;101788.00;;;19.65;57.43
40788;BME280;26497;52.494;7.546;2022-07-06T05:25:00;101789.03;;;19.56;56.95
40788;BME280;26497;52.494;7.546;2022-07-06T05:27:27;101792.97;;;19.83;56.82
40788;BME280;26497;52.494;7.546;2022-07-06T05:29:54;101803.13;;;20.08;56.22
40788;BME280;26497;52.494;7.546;2022-07-06T05:32:21;101792.28;;;20.16;55.90
40788;BME280;26497;52.494;7.546;2022-07-06T05:34:50;101794.59;;;20.31;55.91
40788;BME280;26497;52.494;7.546;2022-07-06T05:37:17;101789.66;;;20.51;55.24
40788;BME280;26497;52.494;7.546;2022-07-06T05:39:45;101791.91;;;20.68;54.49
40788;BME280;26497;52.494;7.546;2022-07-06T05:42:15;101792.53;;;20.81;53.70
40788;BME280;26497;52.494;7.546;2022-07-06T05:44:42;101794.78;;;20.98;52.90
40788;BME280;26497;52.494;7.546;2022-07-06T05:47:09;101785.06;;;21.27;52.71
40788;BME280;26497;52.494;7.546;2022-07-06T05:49:53;101785.34;;;21.49;51.95
40788;BME280;26497;52.494;7.546;2022-07-06T05:52:38;101791.03;;;21.71;50.87
40788;BME280;26497;52.494;7.546;2022-07-06T05:55:08;101787.06;;;21.85;50.78
40788;BME280;26497;52.494;7.546;2022-07-06T05:57:35;101792.47;;;22.12;49.81
40788;BME280;26497;52.494;7.546;2022-07-06T06:00:03;101787.34;;;23.40;47.72
40788;BME280;26497;52.494;7.546;2022-07-06T06:02:39;101790.84;;;25.02;42.54
40788;BME280;26497;52.494;7.546;2022-07-06T06:05:09;101781.84;;;25.23;41.24
40788;BME280;26497;52.494;7.546;2022-07-06T06:07:37;101792.78;;;25.20;40.10
40788;BME280;26497;52.494;7.546;2022-07-06T06:10:10;101798.25;;;25.79;39.91
40788;BME280;26497;52.494;7.546;2022-07-06T06:12:38;101795.91;;;26.09;37.75
40788;BME280;26497;52.494;7.546;2022-07-06T06:15:06;101803.22;;;26.45;36.62
40788;BME280;26497;52.494;7.546;2022-07-06T06:17:35;101797.25;;;26.93;36.70
40788;BME280;26497;52.494;7.546;2022-07-06T06:20:03;101793.84;;;27.41;35.71
40788;BME280;26497;52.494;7.546;2022-07-06T06:22:32;101797.25;;;27.62;34.29
40788;BME280;26497;52.494;7.546;2022-07-06T06:25:11;101797.38;;;27.92;34.31
40788;BME280;26497;52.494;7.546;2022-07-06T06:27:38;101794.22;;;27.68;34.24
40788;BME280;26497;52.494;7.546;2022-07-06T06:30:07;101797.44;;;28.24;33.38
40788;BME280;26497;52.494;7.546;2022-07-06T06:32:34;101799.03;;;28.59;32.40
40788;BME280;26497;52.494;7.546;2022-07-06T06:35:01;101801.59;;;28.46;31.69
40788;BME280;26497;52.494;7.546;2022-07-06T06:37:28;101796.38;;;28.43;31.36
40788;BME280;26497;52.494;7.546;2022-07-06T06:39:55;101800.28;;;28.37;31.08
40788;BME280;26497;52.494;7.546;2022-07-06T06:42:24;101798.56;;;28.67;30.21
40788;BME280;26497;52.494;7.546;2022-07-06T06:44:51;101797.94;;;29.08;30.21
40788;BME280;26497;52.494;7.546;2022-07-06T06:47:18;101803.94;;;29.73;29.12
40788;BME280;26497;52.494;7.546;2022-07-06T06:49:46;101801.56;;;30.93;26.99
40788;BME280;26497;52.494;7.546;2022-07-06T06:52:13;101809.22;;;31.65;25.63
40788;BME280;26497;52.494;7.546;2022-07-06T06:54:40;101801.84;;;32.66;24.53
40788;BME280;26497;52.494;7.546;2022-07-06T06:57:07;101805.53;;;33.93;23.30
40788;BME280;26497;52.494;7.546;2022-07-06T06:59:35;101804.59;;;35.13;22.02
40788;BME280;26497;52.494;7.546;2022-07-06T07:02:03;101805.66;;;35.22;21.67
40788;BME280;26497;52.494;7.546;2022-07-06T07:04:30;101808.97;;;35.88;21.26
40788;BME280;26497;52.494;7.546;2022-07-06T07:06:57;101798.13;;;36.18;20.02
40788;BME280;26497;52.494;7.546;2022-07-06T07:09:24;101805.81;;;36.53;19.59
40788;BME280;26497;52.494;7.546;2022-07-06T07:11:51;101803.03;;;36.34;18.98
40788;BME280;26497;52.494;7.546;2022-07-06T07:14:18;101805.53;;;35.24;19.84
40788;BME280;26497;52.494;7.546;2022-07-06T07:16:47;101808.75;;;34.54;21.05
40788;BME280;26497;52.494;7.546;2022-07-06T07:19:13;101803.59;;;35.14;20.29
40788;BME280;26497;52.494;7.546;2022-07-06T07:21:40;101812.34;;;35.51;19.94
40788;BME280;26497;52.494;7.546;2022-07-06T07:24:08;101815.19;;;35.80;19.30
40788;BME280;26497;52.494;7.546;2022-07-06T07:26:35;101814.19;;;34.65;20.64
40788;BME280;26497;52.494;7.546;2022-07-06T07:29:03;101808.75;;;34.54;20.01
40788;BME280;26497;52.494;7.546;2022-07-06T07:31:30;101810.66;;;32.94;21.03
40788;BME280;26497;52.494;7.546;2022-07-06T07:33:58;101808.50;;;32.86;21.27
40788;BME280;26497;52.494;7.546;2022-07-06T07:36:25;101812.53;;;33.05;21.11
40788;BME280;26497;52.494;7.546;2022-07-06T07:38:52;101800.06;;;32.89;21.01
40788;BME280;26497;52.494;7.546;2022-07-06T07:41:19;101813.31;;;32.83;21.57
40788;BME280;26497;52.494;7.546;2022-07-06T07:43:46;101817.09;;;32.69;21.59
40788;BME280;26497;52.494;7.546;2022-07-06T07:46:13;101813.91;;;32.26;22.40
40788;BME280;26497;52.494;7.546;2022-07-06T07:48:40;101818.59;;;31.61;22.77
40788;BME280;26497;52.494;7.546;2022-07-06T07:51:08;101823.69;;;30.60;23.48
40788;BME280;26497;52.494;7.546;2022-07-06T07:53:35;101829.06;;;30.48;24.97
40788;BME280;26497;52.494;7.546;2022-07-06T07:56:03;101829.28;;;30.72;24.83
40788;BME280;26497;52.494;7.546;2022-07-06T07:58:30;101823.78;;;30.59;24.25
40788;BME280;26497;52.494;7.546;2022-07-06T08:00:57;101821.59;;;30.09;24.65
40788;BME280;26497;52.494;7.546;2022-07-06T08:03:24;101835.09;;;29.22;25.93
40788;BME280;26497;52.494;7.546;2022-07-06T08:05:51;101829.75;;;28.60;27.18
40788;BME280;26497;52.494;7.546;2022-07-06T08:08:20;101832.59;;;28.42;27.37
40788;BME280;26497;52.494;7.546;2022-07-06T08:10:47;101833.88;;;28.51;27.01
40788;BME280;26497;52.494;7.546;2022-07-06T08:13:14;101835.16;;;28.60;26.89
40788;BME280;26497;52.494;7.546;2022-07-06T08:15:41;101825.84;;;28.96;27.21
40788;BME280;26497;52.494;7.546;2022-07-06T08:18:09;101825.41;;;29.49;26.84
40788;BME280;26497;52.494;7.546;2022-07-06T08:20:36;101821.09;;;29.88;26.02
40788;BME280;26497;52.494;7.546;2022-07-06T08:23:03;101823.31;;;30.25;24.91
40788;BME280;26497;52.494;7.546;2022-07-06T08:25:32;101831.94;;;30.99;24.15
40788;BME280;26497;52.494;7.546;2022-07-06T08:28:00;101822.19;;;31.48;23.20
40788;BME280;26497;52.494;7.546;2022-07-06T08:30:27;101828.84;;;31.83;23.09
40788;BME280;26497;52.494;7.546;2022-07-06T08:32:57;101814.06;;;32.60;23.22
40788;BME280;26497;52.494;7.546;2022-07-06T08:35:23;101815.22;;;33.75;21.02
40788;BME280;26497;52.494;7.546;2022-07-06T08:37:50;101808.81;;;34.64;20.23
40788;BME280;26497;52.494;7.546;2022-07-06T08:40:17;101809.72;;;34.85;20.15
40788;BME280;26497;52.494;7.546;2022-07-06T08:42:47;101820.72;;;34.53;20.68
40788;BME280;26497;52.494;7.546;2022-07-06T08:45:20;101823.03;;;33.91;19.80
40788;BME280;26497;52.494;7.546;2022-07-06T08:47:49;101821.06;;;33.47;20.98
40788;BME280;26497;52.494;7.546;2022-07-06T08:50:17;101816.13;;;32.45;20.97
40788;BME280;26497;52.494;7.546;2022-07-06T08:52:47;101811.50;;;32.34;21.70
40788;BME280;26497;52.494;7.546;2022-07-06T08:55:16;101812.69;;;33.26;21.72
40788;BME280;26497;52.494;7.546;2022-07-06T08:57:47;101812.81;;;33.24;21.08
40788;BME280;26497;52.494;7.546;2022-07-06T09:00:16;101815.59;;;33.93;20.36
40788;BME280;26497;52.494;7.546;2022-07-06T09:02:43;101819.38;;;34.36;21.58
40788;BME280;26497;52.494;7.546;2022-07-06T09:05:13;101815.78;;;34.24;19.84
40788;BME280;26497;52.494;7.546;2022-07-06T09:07:41;101810.84;;;34.06;20.46
40788;BME280;26497;52.494;7.546;2022-07-06T09:10:09;101811.31;;;33.20;20.19
40788;BME280;26497;52.494;7.546;2022-07-06T09:12:36;101820.56;;;32.71;21.12
40788;BME280;26497;52.494;7.546;2022-07-06T09:15:06;101825.56;;;31.91;23.81
40788;BME280;26497;52.494;7.546;2022-07-06T09:17:36;101821.41;;;31.72;23.44
40788;BME280;26497;52.494;7.546;2022-07-06T09:20:07;101814.38;;;32.07;23.18
40788;BME280;26497;52.494;7.546;2022-07-06T09:22:35;101818.28;;;31.66;23.29
40788;BME280;26497;52.494;7.546;2022-07-06T09:25:05;101824.16;;;31.21;23.74
40788;BME280;26497;52.494;7.546;2022-07-06T09:27:37;101822.88;;;30.86;24.03
40788;BME280;26497;52.494;7.546;2022-07-06T09:30:07;101817.78;;;29.97;24.90
40788;BME280;26497;52.494;7.546;2022-07-06T09:32:42;101813.31;;;29.96;25.03
40788;BME280;26497;52.494;7.546;2022-07-06T09:35:21;101820.50;;;29.83;25.36
40788;BME280;26497;52.494;7.546;2022-07-06T09:38:03;101815.88;;;29.70;26.07
40788;BME280;26497;52.494;7.546;2022-07-06T09:40:32;101819.84;;;29.79;25.75
40788;BME280;26497;52.494;7.546;2022-07-06T09:43:11;101823.16;;;29.99;26.51
40788;BME280;26497;52.494;7.546;2022-07-06T09:45:41;101822.00;;;30.30;25.61
40788;BME280;26497;52.494;7.546;2022-07-06T09:48:11;101823.56;;;30.35;26.20
40788;BME280;26497;52.494;7.546;2022-07-06T09:50:40;101834.41;;;31.17;25.48
40788;BME280;26497;52.494;7.546;2022-07-06T09:53:07;101812.91;;;32.27;22.99
40788;BME280;26497;52.494;7.546;2022-07-06T09:55:34;101820.28;;;32.62;23.15
40788;BME280;26497;52.494;7.546;2022-07-06T09:58:02;101821.44;;;32.22;23.48
40788;BME280;26497;52.494;7.546;2022-07-06T10:00:29;101829.28;;;32.27;23.34
40788;BME280;26497;52.494;7.546;2022-07-06T10:02:57;101826.06;;;32.09;24.58
40788;BME280;26497;52.494;7.546;2022-07-06T10:05:26;101822.63;;;31.68;24.84
40788;BME280;26497;52.494;7.546;2022-07-06T10:07:58;101820.53;;;32.59;24.61
40788;BME280;26497;52.494;7.546;2022-07-06T10:10:26;101824.78;;;33.92;22.55
40788;BME280;26497;52.494;7.546;2022-07-06T10:12:56;101823.13;;;34.67;21.55
40788;BME280;26497;52.494;7.546;2022-07-06T10:15:25;101817.84;;;35.08;21.19
40788;BME280;26497;52.494;7.546;2022-07-06T10:17:53;101822.56;;;35.49;20.77
40788;BME280;26497;52.494;7.546;2022-07-06T10:20:23;101821.09;;;35.23;19.63
40788;BME280;26497;52.494;7.546;2022-07-06T10:22:50;101805.03;;;35.09;20.25
40788;BME280;26497;52.494;7.546;2022-07-06T10:25:18;101807.84;;;32.83;23.05
40788;BME280;26497;52.494;7.546;2022-07-06T10:27:47;101811.72;;;32.18;23.88
40788;BME280;26497;52.494;7.546;2022-07-06T10:30:15;101814.16;;;32.83;24.64
40788;BME280;26497;52.494;7.546;2022-07-06T10:32:45;101816.59;;;33.46;22.31
40788;BME280;26497;52.494;7.546;2022-07-06T10:35:13;101813.81;;;33.23;22.42
40788;BME280;26497;52.494;7.546;2022-07-06T10:37:41;101819.81;;;32.20;24.25
40788;BME280;26497;52.494;7.546;2022-07-06T10:40:10;101820.84;;;31.02;25.08
40788;BME280;26497;52.494;7.546;2022-07-06T10:42:58;101811.56;;;30.10;25.21
40788;BME280;26497;52.494;7.546;2022-07-06T10:45:51;101818.50;;;29.12;27.23
40788;BME280;26497;52.494;7.546;2022-07-06T10:48:20;101817.91;;;29.38;28.36
40788;BME280;26497;52.494;7.546;2022-07-06T10:50:52;101820.41;;;31.09;24.45
40788;BME280;26497;52.494;7.546;2022-07-06T10:53:24;101804.69;;;33.59;23.06
40788;BME280;26497;52.494;7.546;2022-07-06T10:55:53;101800.09;;;35.34;20.05
40788;BME280;26497;52.494;7.546;2022-07-06T10:58:47;101799.44;;;35.72;19.36
40788;BME280;26497;52.494;7.546;2022-07-06T11:01:18;101796.16;;;34.19;20.85
40788;BME280;26497;52.494;7.546;2022-07-06T11:03:48;101805.22;;;33.17;22.59
40788;BME280;26497;52.494;7.546;2022-07-06T11:06:17;101798.78;;;32.46;22.44
40788;BME280;26497;52.494;7.546;2022-07-06T11:08:53;101798.75;;;33.06;22.37
40788;BME280;26497;52.494;7.546;2022-07-06T11:11:23;101790.50;;;33.53;22.33
40788;BME280;26497;52.494;7.546;2022-07-06T11:13:58;101776.16;;;35.05;20.83
40788;BME280;26497;52.494;7.546;2022-07-06T11:16:28;101777.00;;;35.57;19.83
40788;BME280;26497;52.494;7.546;2022-07-06T11:19:02;101779.78;;;34.94;20.21
40788;BME280;26497;52.494;7.546;2022-07-06T11:21:39;101772.31;;;33.98;21.24
40788;BME280;26497;52.494;7.546;2022-07-06T11:24:11;101777.06;;;33.73;21.75
40788;BME280;26497;52.494;7.546;2022-07-06T11:26:38;101774.00;;;34.54;20.46
40788;BME280;26497;52.494;7.546;2022-07-06T11:29:08;101775.59;;;35.11;20.29
40788;BME280;26497;52.494;7.546;2022-07-06T11:31:38;101775.19;;;35.78;18.79
40788;BME280;26497;52.494;7.546;2022-07-06T11:34:07;101774.00;;;35.08;19.53
40788;BME280;26497;52.494;7.546;2022-07-06T11:36:35;101769.31;;;34.01;20.71
40788;BME280;26497;52.494;7.546;2022-07-06T11:39:02;101777.63;;;33.20;22.19
40788;BME280;26497;52.494;7.546;2022-07-06T11:41:32;101773.56;;;32.78;22.58
40788;BME280;26497;52.494;7.546;2022-07-06T11:44:00;101769.06;;;33.02;21.52
40788;BME280;26497;52.494;7.546;2022-07-06T11:46:29;101766.16;;;33.39;21.01
40788;BME280;26497;52.494;7.546;2022-07-06T11:48:58;101758.69;;;34.63;20.13
40788;BME280;26497;52.494;7.546;2022-07-06T11:51:28;101760.75;;;35.45;18.38
40788;BME280;26497;52.494;7.546;2022-07-06T11:53:57;101760.72;;;34.71;20.25
40788;BME280;26497;52.494;7.546;2022-07-06T11:56:26;101757.75;;;34.41;20.40
40788;BME280;26497;52.494;7.546;2022-07-06T11:58:56;101757.53;;;33.78;21.15
40788;BME280;26497;52.494;7.546;2022-07-06T12:01:25;101754.16;;;32.59;22.46
40788;BME280;26497;52.494;7.546;2022-07-06T12:03:57;101755.38;;;32.55;22.57
40788;BME280;26497;52.494;7.546;2022-07-06T12:06:25;101754.00;;;32.60;22.02
40788;BME280;26497;52.494;7.546;2022-07-06T12:08:55;101754.34;;;31.83;22.38
40788;BME280;26497;52.494;7.546;2022-07-06T12:11:24;101752.66;;;31.04;23.90
40788;BME280;26497;52.494;7.546;2022-07-06T12:13:55;101758.06;;;29.96;25.40
40788;BME280;26497;52.494;7.546;2022-07-06T12:16:29;101747.75;;;29.59;25.14
40788;BME280;26497;52.494;7.546;2022-07-06T12:18:57;101741.88;;;30.89;24.82
40788;BME280;26497;52.494;7.546;2022-07-06T12:21:25;101744.34;;;32.08;22.61
40788;BME280;26497;52.494;7.546;2022-07-06T12:23:53;101744.59;;;33.23;21.34
40788;BME280;26497;52.494;7.546;2022-07-06T12:26:23;101734.56;;;34.57;20.87
40788;BME280;26497;52.494;7.546;2022-07-06T12:29:03;101729.53;;;35.67;19.82
40788;BME280;26497;52.494;7.546;2022-07-06T12:31:36;101735.25;;;36.73;18.89
40788;BME280;26497;52.494;7.546;2022-07-06T12:34:03;101727.94;;;35.64;17.98
40788;BME280;26497;52.494;7.546;2022-07-06T12:36:31;101721.66;;;33.48;19.50
40788;BME280;26497;52.494;7.546;2022-07-06T12:38:58;101722.72;;;32.53;20.67
40788;BME280;26497;52.494;7.546;2022-07-06T12:41:33;101719.22;;;32.40;21.72
40788;BME280;26497;52.494;7.546;2022-07-06T12:44:07;101705.41;;;32.77;20.71
40788;BME280;26497;52.494;7.546;2022-07-06T12:46:36;101712.47;;;33.61;20.05
40788;BME280;26497;52.494;7.546;2022-07-06T12:49:12;101716.72;;;34.09;19.24
40788;BME280;26497;52.494;7.546;2022-07-06T12:51:58;101711.22;;;34.41;17.60
40788;BME280;26497;52.494;7.546;2022-07-06T12:54:29;101699.19;;;35.58;17.61
40788;BME280;26497;52.494;7.546;2022-07-06T12:57:08;101707.09;;;36.32;17.03